< < Back
Terminal Aerodrome Forecast


Current Version              Previous Versions:   1  2  3  4  5  6  7  8  9  

Terminal Aerodrome Forecast

694
FTUS42 KFFC 020528
TAFMCN
TAF
KMCN 020528Z 0206/0306 10005KT P6SM FEW250
      TEMPO 0209/0213 5SM BR
     FM021600 07005KT P6SM SCT040
     FM030200 00000KT P6SM FEW250=

Latest METAR

859
SAUS80 KWBC 021400
MTRMCN
METAR KMCN 021353Z 11004KT 5SM BR OVC005 25/23 A2993 RMK AO2 SLP129
T02500228


USA.gov is the U.S. government's official web portal to all federal, state and local government web resources and services.